createdAt,value
2023-02-21T00:01:37.764Z,5.70
2023-02-21T00:04:24.893Z,5.70
2023-02-21T00:07:11.789Z,5.70
2023-02-21T00:09:59.742Z,5.60
2023-02-21T00:12:46.689Z,5.60
2023-02-21T00:15:33.611Z,5.60
2023-02-21T00:18:20.577Z,5.60
2023-02-21T00:21:07.462Z,5.60
2023-02-21T00:23:55.893Z,5.60
2023-02-21T00:26:43.382Z,5.60
2023-02-21T00:29:30.420Z,5.60
2023-02-21T00:32:17.306Z,5.60
2023-02-21T00:35:04.397Z,5.60
2023-02-21T00:37:51.415Z,5.60
2023-02-21T00:40:38.712Z,5.50
2023-02-21T00:43:25.644Z,5.50
2023-02-21T00:46:12.611Z,5.50
2023-02-21T00:48:59.668Z,5.50
2023-02-21T00:51:46.719Z,5.50
2023-02-21T00:54:33.585Z,5.40
2023-02-21T00:57:20.599Z,5.40
2023-02-21T01:00:07.560Z,5.40
2023-02-21T01:02:54.432Z,5.30
2023-02-21T01:05:41.446Z,5.40
2023-02-21T01:08:28.394Z,5.40
2023-02-21T01:11:15.649Z,6.80
2023-02-21T01:14:02.912Z,5.40
2023-02-21T01:16:51.369Z,5.40
2023-02-21T01:19:38.880Z,5.40
2023-02-21T01:22:26.059Z,5.40
2023-02-21T01:25:13.030Z,5.30
2023-02-21T01:27:59.998Z,5.40
2023-02-21T01:30:46.943Z,5.30
2023-02-21T01:33:33.916Z,5.30
2023-02-21T01:36:20.844Z,5.30
2023-02-21T01:39:07.794Z,5.30
2023-02-21T01:41:54.714Z,5.30
2023-02-21T01:45:12.053Z,5.30
2023-02-21T01:47:59.109Z,5.20
2023-02-21T01:50:51.243Z,5.30
2023-02-21T01:53:41.560Z,5.30
2023-02-21T01:56:30.098Z,5.30
2023-02-21T01:59:20.632Z,5.30
2023-02-21T02:02:30.613Z,5.30
2023-02-21T02:05:18.739Z,5.20
2023-02-21T02:08:06.001Z,5.20
2023-02-21T02:10:52.932Z,5.20
2023-02-21T02:13:59.685Z,5.20
2023-02-21T02:16:42.751Z,5.20
2023-02-21T02:19:42.896Z,5.20
2023-02-21T02:22:49.709Z,5.20
2023-02-21T02:25:56.451Z,5.10
2023-02-21T02:28:43.267Z,5.20
2023-02-21T02:31:50.069Z,5.20
2023-02-21T02:34:39.561Z,5.20
2023-02-21T02:37:30.731Z,3.80
2023-02-21T02:40:21.462Z,5.20
2023-02-21T02:43:28.196Z,5.20
2023-02-21T02:45:58.509Z,5.50
2023-02-21T02:48:49.671Z,5.20
2023-02-21T02:51:17.682Z,5.20
2023-02-21T02:53:44.774Z,5.20
2023-02-21T02:56:15.072Z,4.50
2023-02-21T02:59:05.763Z,5.10
2023-02-21T03:02:12.506Z,5.20
2023-02-21T03:04:59.280Z,5.20
2023-02-21T03:08:06.029Z,5.20
2023-02-21T03:11:12.504Z,5.10
2023-02-21T03:14:07.431Z,5.20
2023-02-21T03:16:42.678Z,5.20
2023-02-21T03:19:35.060Z,5.10
2023-02-21T03:22:07.741Z,5.10
2023-02-21T03:24:38.361Z,5.10
2023-02-21T03:27:08.003Z,5.20
2023-02-21T03:29:36.544Z,3.90
2023-02-21T03:32:13.664Z,5.10
2023-02-21T03:34:42.972Z,5.20
2023-02-21T03:37:18.838Z,5.20
2023-02-21T03:39:45.908Z,5.20
2023-02-21T03:42:12.904Z,5.20
2023-02-21T03:44:39.905Z,5.20
2023-02-21T03:47:06.891Z,5.20
2023-02-21T03:49:33.954Z,5.20
2023-02-21T03:52:00.998Z,5.20
2023-02-21T03:54:28.098Z,5.20
2023-02-21T03:56:55.087Z,5.20
2023-02-21T03:59:22.209Z,5.20
2023-02-21T04:01:49.358Z,5.10
2023-02-21T04:04:16.404Z,5.20
2023-02-21T04:06:43.432Z,5.20
2023-02-21T04:09:10.465Z,5.20
2023-02-21T04:11:37.621Z,5.20
2023-02-21T04:14:04.629Z,5.20
2023-02-21T04:16:31.722Z,5.20
2023-02-21T04:18:58.727Z,5.20
2023-02-21T04:21:25.746Z,5.20
2023-02-21T04:23:52.750Z,5.20
2023-02-21T04:26:19.850Z,5.20
2023-02-21T04:28:47.014Z,5.30
2023-02-21T04:31:16.456Z,5.30
2023-02-21T04:33:44.248Z,5.20
2023-02-21T04:36:11.520Z,5.20
2023-02-21T04:38:38.564Z,5.30
2023-02-21T04:41:06.005Z,5.20
2023-02-21T04:43:33.036Z,5.20
2023-02-21T04:46:00.426Z,5.20
2023-02-21T04:48:27.431Z,5.20
2023-02-21T04:50:57.286Z,5.20
2023-02-21T04:53:26.401Z,5.20
2023-02-21T04:55:53.455Z,5.30
2023-02-21T04:58:20.494Z,5.20
2023-02-21T05:00:47.601Z,5.10
2023-02-21T05:03:14.625Z,5.20
2023-02-21T05:05:41.664Z,5.20
2023-02-21T05:08:08.641Z,5.20
2023-02-21T05:10:45.193Z,5.20
2023-02-21T05:13:13.523Z,5.20
2023-02-21T05:15:40.625Z,5.20
2023-02-21T05:18:07.820Z,5.10
2023-02-21T05:20:34.914Z,5.10
2023-02-21T05:23:11.707Z,5.10
2023-02-21T05:25:40.327Z,5.10
2023-02-21T05:28:07.389Z,5.10
2023-02-21T05:30:34.655Z,5.10
2023-02-21T05:33:01.775Z,5.10
2023-02-21T05:35:28.805Z,5.10
2023-02-21T05:37:55.978Z,5.10
2023-02-21T05:40:23.013Z,5.10
2023-02-21T05:42:50.236Z,5.20
2023-02-21T05:45:17.288Z,3.90
2023-02-21T05:47:44.342Z,5.20
2023-02-21T05:50:11.321Z,5.20
2023-02-21T05:52:38.399Z,5.20
2023-02-21T05:55:05.933Z,5.10
2023-02-21T05:57:38.895Z,5.10
2023-02-21T06:00:06.959Z,5.10
2023-02-21T06:02:33.979Z,5.20
2023-02-21T06:05:01.033Z,5.10
2023-02-21T06:07:28.030Z,5.20
2023-02-21T06:09:55.027Z,5.10
2023-02-21T06:12:22.174Z,5.10
2023-02-21T06:14:49.266Z,5.10
2023-02-21T06:17:16.396Z,5.10
2023-02-21T06:19:43.525Z,5.10
2023-02-21T06:22:10.541Z,5.10
2023-02-21T06:24:37.734Z,5.10
2023-02-21T06:27:04.836Z,5.10
2023-02-21T06:29:31.848Z,5.10
2023-02-21T06:32:00.244Z,3.90
2023-02-21T06:34:28.107Z,5.10
2023-02-21T06:36:56.195Z,5.00
2023-02-21T06:39:24.142Z,5.00
2023-02-21T06:41:51.912Z,5.10
2023-02-21T06:44:19.031Z,5.10
2023-02-21T06:46:46.552Z,5.10
2023-02-21T06:49:13.535Z,5.10
2023-02-21T06:51:43.122Z,5.10
2023-02-21T06:54:10.426Z,5.10
2023-02-21T06:56:37.714Z,4.10
2023-02-21T06:59:05.268Z,3.80
2023-02-21T07:01:32.810Z,5.20
2023-02-21T07:03:59.908Z,5.10
2023-02-21T07:06:29.604Z,5.10
2023-02-21T07:08:57.078Z,5.10
2023-02-21T07:11:24.071Z,5.20
2023-02-21T07:13:52.558Z,5.20
2023-02-21T07:16:20.840Z,5.20
2023-02-21T07:18:47.967Z,5.20
2023-02-21T07:21:16.271Z,5.20
2023-02-21T07:23:44.796Z,5.20
2023-02-21T07:26:12.688Z,5.20
2023-02-21T07:28:39.931Z,5.30
2023-02-21T07:31:07.452Z,5.20
2023-02-21T07:33:34.735Z,5.30
2023-02-21T07:36:01.842Z,4.30
2023-02-21T07:38:30.730Z,5.40
2023-02-21T07:40:59.397Z,5.40
2023-02-21T07:43:27.780Z,5.40
2023-02-21T07:45:55.073Z,5.40
2023-02-21T07:48:22.513Z,5.40
2023-02-21T07:50:49.894Z,5.40
2023-02-21T07:53:28.501Z,5.40
2023-02-21T07:55:55.601Z,5.50
2023-02-21T07:58:22.555Z,5.50
2023-02-21T08:04:36.459Z,5.60
2023-02-21T08:07:07.126Z,5.60
2023-02-21T08:09:35.314Z,5.70
2023-02-21T08:12:02.512Z,5.70
2023-02-21T08:14:29.536Z,5.60
2023-02-21T08:16:56.739Z,5.60
2023-02-21T08:19:23.760Z,5.60
2023-02-21T08:21:51.453Z,5.60
2023-02-21T08:24:19.253Z,5.60
2023-02-21T08:26:46.687Z,5.70
2023-02-21T08:29:15.641Z,5.70
2023-02-21T08:31:44.575Z,5.80
2023-02-21T08:34:12.660Z,5.80
2023-02-21T08:36:42.483Z,5.80
2023-02-21T08:39:10.900Z,5.80
2023-02-21T08:43:06.737Z,5.80
2023-02-21T08:49:48.224Z,4.50
2023-02-21T08:57:05.741Z,6.20
2023-02-21T08:59:54.677Z,5.70
2023-02-21T09:03:10.192Z,6.70
2023-02-21T09:17:21.742Z,6.00
2023-02-21T09:41:04.727Z,4.50
2023-02-21T09:57:18.744Z,5.30
2023-02-21T10:00:38.667Z,6.40
2023-02-21T10:19:44.872Z,4.90
2023-02-21T10:42:18.524Z,5.90
2023-02-21T11:15:50.740Z,5.20
2023-02-21T11:25:56.717Z,6.00
2023-02-21T11:28:24.183Z,6.10
2023-02-21T11:31:15.414Z,6.20
2023-02-21T11:34:04.820Z,6.20
2023-02-21T11:36:42.798Z,6.20
2023-02-21T11:39:33.357Z,6.20
2023-02-21T11:42:04.349Z,6.10
2023-02-21T11:44:41.364Z,6.10
2023-02-21T11:47:23.243Z,6.10
2023-02-21T11:50:10.540Z,6.10
2023-02-21T11:53:00.510Z,6.20
2023-02-21T11:55:28.356Z,6.20
2023-02-21T11:58:21.862Z,6.30
2023-02-21T12:01:13.418Z,6.30
2023-02-21T12:04:20.402Z,6.30
2023-02-21T12:07:27.146Z,6.40
2023-02-21T12:10:16.357Z,6.30
2023-02-21T12:13:23.106Z,6.30
2023-02-21T12:16:12.382Z,6.20
2023-02-21T12:19:05.407Z,6.20
2023-02-21T12:22:02.489Z,6.20
2023-02-21T12:25:03.642Z,6.30
2023-02-21T12:27:56.169Z,5.70
2023-02-21T12:31:02.939Z,6.40
2023-02-21T12:34:09.690Z,6.50
2023-02-21T12:37:04.431Z,6.40
2023-02-21T12:39:58.057Z,6.40
2023-02-21T12:43:04.882Z,6.40
2023-02-21T12:46:12.970Z,6.50
2023-02-21T12:48:49.932Z,6.60
2023-02-21T12:51:22.310Z,6.70
2023-02-21T12:54:29.027Z,6.80
2023-02-21T12:57:05.412Z,7.10
2023-02-21T13:00:08.122Z,6.90
2023-02-21T13:02:59.501Z,5.60
2023-02-21T13:05:54.241Z,6.70
2023-02-21T13:09:00.947Z,6.70
2023-02-21T13:11:47.635Z,6.60
2023-02-21T13:14:18.264Z,6.60
2023-02-21T13:16:45.450Z,6.50
2023-02-21T13:19:14.118Z,6.70
2023-02-21T13:22:40.717Z,6.60
2023-02-21T13:25:30.854Z,6.60
2023-02-21T13:28:19.223Z,6.50
2023-02-21T13:30:51.097Z,6.50
2023-02-21T13:33:44.040Z,6.60
2023-02-21T13:36:32.274Z,6.50
2023-02-21T13:39:23.509Z,6.50
2023-02-21T13:41:55.981Z,6.50
2023-02-21T13:44:48.818Z,6.50
2023-02-21T13:47:19.034Z,6.60
2023-02-21T13:50:25.749Z,6.60
2023-02-21T13:53:01.824Z,6.60
2023-02-21T13:55:31.639Z,6.70
2023-02-21T13:58:38.458Z,6.70
2023-02-21T14:01:44.669Z,6.00
2023-02-21T14:04:53.133Z,6.60
2023-02-21T14:07:41.687Z,6.70
2023-02-21T14:10:47.356Z,6.60
2023-02-21T14:13:36.625Z,6.00
2023-02-21T14:16:43.371Z,6.50
2023-02-21T14:19:11.384Z,6.40
2023-02-21T14:21:45.577Z,6.30
2023-02-21T14:24:36.538Z,7.70
2023-02-21T14:27:43.313Z,6.30
2023-02-21T14:30:32.387Z,6.30
2023-02-21T14:33:10.875Z,6.20
2023-02-21T14:35:47.911Z,6.20
2023-02-21T14:38:25.256Z,6.30
2023-02-21T14:41:20.769Z,6.20
2023-02-21T14:44:27.486Z,6.20
2023-02-21T14:47:26.635Z,6.20
2023-02-21T14:50:19.828Z,6.10
2023-02-21T14:53:13.219Z,6.10
2023-02-21T14:56:19.958Z,5.80
2023-02-21T14:59:26.638Z,6.10
2023-02-21T15:02:13.346Z,6.10
2023-02-21T15:04:42.690Z,6.10
2023-02-21T15:07:36.254Z,6.00
2023-02-21T15:10:24.978Z,5.90
2023-02-21T15:13:14.213Z,5.90
2023-02-21T15:15:42.906Z,5.90
2023-02-21T15:18:31.315Z,5.90
2023-02-21T15:21:18.998Z,5.90
2023-02-21T15:23:49.355Z,4.60
2023-02-21T15:26:36.222Z,5.80
2023-02-21T15:29:24.922Z,5.80
2023-02-21T15:31:55.595Z,5.80
2023-02-21T15:34:28.304Z,5.80
2023-02-21T15:37:35.001Z,5.80
2023-02-21T15:40:05.395Z,5.80
2023-02-21T15:42:35.084Z,5.70
2023-02-21T15:45:05.973Z,5.80
2023-02-21T15:47:35.530Z,5.80
2023-02-21T15:50:17.732Z,5.80
2023-02-21T15:52:48.982Z,5.70
2023-02-21T15:55:35.861Z,5.70
2023-02-21T15:58:24.553Z,5.60
2023-02-21T16:01:10.631Z,5.70
2023-02-21T16:03:40.854Z,5.70
2023-02-21T16:06:28.883Z,5.60
2023-02-21T16:09:36.059Z,5.60
2023-02-21T16:12:28.042Z,5.60
2023-02-21T16:15:35.892Z,4.70
2023-02-21T16:18:07.760Z,5.20
2023-02-21T16:20:37.646Z,5.60
2023-02-21T16:23:28.606Z,5.60
2023-02-21T16:26:35.606Z,5.60
2023-02-21T16:29:03.788Z,5.50
2023-02-21T16:31:33.985Z,5.50
2023-02-21T16:34:01.412Z,5.50
2023-02-21T16:36:30.645Z,5.40
2023-02-21T16:38:59.204Z,5.40
2023-02-21T16:41:27.075Z,5.40
2023-02-21T16:43:55.216Z,5.30
2023-02-21T16:46:30.205Z,5.30
2023-02-21T16:48:59.168Z,5.30
2023-02-21T16:51:33.769Z,5.20
2023-02-21T16:54:01.974Z,5.10
2023-02-21T16:56:29.669Z,5.10
2023-02-21T16:58:57.486Z,5.10
2023-02-21T17:01:30.687Z,5.00
2023-02-21T17:03:59.145Z,3.50
2023-02-21T17:06:33.263Z,3.90
2023-02-21T17:09:00.336Z,4.90
2023-02-21T17:11:27.909Z,4.80
2023-02-21T17:13:55.020Z,4.80
2023-02-21T17:16:22.216Z,4.70
2023-02-21T17:18:49.302Z,4.70
2023-02-21T17:21:16.589Z,4.60
2023-02-21T17:23:43.790Z,4.60
2023-02-21T17:26:12.487Z,4.50
2023-02-21T17:28:39.936Z,4.50
2023-02-21T17:31:07.380Z,4.40
2023-02-21T17:33:35.699Z,4.40
2023-02-21T17:36:02.855Z,4.40
2023-02-21T17:38:29.911Z,4.40
2023-02-21T17:40:57.640Z,4.40
2023-02-21T17:43:24.801Z,4.40
2023-02-21T17:45:51.868Z,4.30
2023-02-21T17:48:18.893Z,4.30
2023-02-21T17:50:45.973Z,4.30
2023-02-21T17:53:13.001Z,4.10
2023-02-21T17:55:40.083Z,4.10
2023-02-21T17:58:07.130Z,4.10
2023-02-21T18:00:34.758Z,4.10
2023-02-21T18:03:04.401Z,4.20
2023-02-21T18:05:32.069Z,3.90
2023-02-21T18:07:59.657Z,3.90
2023-02-21T18:10:27.525Z,3.80
2023-02-21T18:12:54.735Z,3.80
2023-02-21T18:15:24.017Z,3.60
2023-02-21T18:17:51.559Z,3.70
2023-02-21T18:20:18.757Z,3.70
2023-02-21T18:22:46.078Z,3.70
2023-02-21T18:25:16.107Z,3.70
2023-02-21T18:27:43.620Z,3.60
2023-02-21T18:30:11.408Z,3.60
2023-02-21T18:32:38.494Z,3.60
2023-02-21T18:35:06.302Z,3.60
2023-02-21T18:37:33.332Z,2.30
2023-02-21T18:40:00.575Z,3.50
2023-02-21T18:42:28.131Z,3.50
2023-02-21T18:44:56.599Z,3.50
2023-02-21T18:47:25.751Z,3.40
2023-02-21T18:49:56.302Z,3.40
2023-02-21T18:52:23.599Z,3.40
2023-02-21T18:54:50.960Z,2.60
2023-02-21T18:57:20.524Z,3.30
2023-02-21T18:59:47.773Z,3.30
2023-02-21T19:02:17.044Z,3.30
2023-02-21T19:04:44.855Z,3.30
2023-02-21T19:07:17.050Z,3.30
2023-02-21T19:09:46.954Z,3.30
2023-02-21T19:12:14.121Z,3.30
2023-02-21T19:14:41.443Z,3.20
2023-02-21T19:17:09.449Z,3.20
2023-02-21T19:19:37.880Z,3.20
2023-02-21T19:22:05.833Z,3.20
2023-02-21T19:24:33.260Z,3.20
2023-02-21T19:27:01.119Z,3.20
2023-02-21T19:29:28.625Z,3.20
2023-02-21T19:31:56.691Z,3.20
2023-02-21T19:38:13.443Z,3.10
2023-02-21T19:40:40.545Z,3.20
2023-02-21T19:43:07.920Z,3.10
2023-02-21T19:45:35.287Z,3.10
2023-02-21T19:48:02.378Z,3.10
2023-02-21T19:50:31.045Z,3.00
2023-02-21T19:52:59.164Z,3.00
2023-02-21T19:55:29.614Z,3.00
2023-02-21T19:57:56.882Z,3.00
2023-02-21T20:00:26.890Z,1.80
2023-02-21T20:02:54.336Z,2.90
2023-02-21T20:05:22.019Z,3.00
2023-02-21T20:07:49.059Z,2.90
2023-02-21T20:10:19.250Z,1.60
2023-02-21T20:12:46.294Z,2.90
2023-02-21T20:15:13.286Z,2.90
2023-02-21T20:17:40.601Z,2.80
2023-02-21T20:20:08.198Z,2.80
2023-02-21T20:22:35.572Z,2.80
2023-02-21T20:25:02.792Z,2.70
2023-02-21T20:27:29.858Z,2.70
2023-02-21T20:29:57.356Z,2.60
2023-02-21T20:32:24.871Z,1.60
2023-02-21T20:34:54.673Z,2.60
2023-02-21T20:37:22.118Z,2.40
2023-02-21T20:39:50.252Z,2.40
2023-02-21T20:42:18.092Z,2.30
2023-02-21T20:44:45.770Z,2.30
2023-02-21T20:47:12.919Z,2.30
2023-02-21T20:49:42.467Z,2.20
2023-02-21T20:52:09.591Z,2.30
2023-02-21T20:54:37.018Z,1.00
2023-02-21T20:57:04.489Z,2.20
2023-02-21T20:59:34.726Z,2.20
2023-02-21T21:02:02.758Z,2.10
2023-02-21T21:04:33.268Z,2.10
2023-02-21T21:07:03.371Z,2.20
2023-02-21T21:09:34.562Z,2.20
2023-02-21T21:12:06.097Z,2.20
2023-02-21T21:14:37.448Z,2.20
2023-02-21T21:17:05.196Z,2.20
2023-02-21T21:19:34.332Z,2.10
2023-02-21T21:22:05.210Z,2.00
2023-02-21T21:24:32.876Z,2.10
2023-02-21T21:27:07.524Z,2.10
2023-02-21T21:29:36.903Z,2.10
2023-02-21T21:32:05.681Z,2.10
2023-02-21T21:34:33.520Z,1.70
2023-02-21T21:37:02.766Z,2.10
2023-02-21T21:39:31.646Z,2.10
2023-02-21T21:42:05.423Z,2.10
2023-02-21T21:44:33.130Z,1.00
2023-02-21T21:47:03.271Z,2.00
2023-02-21T21:49:32.563Z,2.00
2023-02-21T21:52:00.282Z,2.00
2023-02-21T21:54:27.799Z,2.00
2023-02-21T21:56:55.289Z,2.00
2023-02-21T21:59:24.667Z,1.50
2023-02-21T22:01:51.854Z,2.00
2023-02-21T22:04:19.209Z,1.90
2023-02-21T22:06:47.321Z,1.90
2023-02-21T22:09:16.016Z,1.90
2023-02-21T22:11:45.529Z,1.80
2023-02-21T22:14:17.372Z,1.80
2023-02-21T22:16:47.332Z,1.80
2023-02-21T22:19:15.733Z,1.70
2023-02-21T22:21:44.259Z,1.70
2023-02-21T22:24:15.280Z,1.60
2023-02-21T22:26:44.948Z,1.70
2023-02-21T22:29:15.775Z,1.70
2023-02-21T22:31:44.567Z,1.60
2023-02-21T22:34:23.308Z,1.50
2023-02-21T22:36:52.478Z,1.30
2023-02-21T22:39:21.512Z,1.50
2023-02-21T22:41:49.235Z,1.40
2023-02-21T22:44:16.908Z,1.40
2023-02-21T22:46:47.537Z,1.40
2023-02-21T22:49:17.999Z,1.30
2023-02-21T22:51:45.168Z,1.30
2023-02-21T22:54:14.623Z,1.20
2023-02-21T22:56:51.058Z,1.20
2023-02-21T22:59:21.383Z,1.10
2023-02-21T23:01:50.844Z,0.10
2023-02-21T23:04:25.909Z,1.00
2023-02-21T23:06:56.471Z,0.90
2023-02-21T23:09:24.736Z,1.00
2023-02-21T23:11:53.771Z,1.00
2023-02-21T23:14:22.261Z,0.90
2023-02-21T23:16:49.471Z,1.00
2023-02-21T23:19:17.164Z,0.80
2023-02-21T23:21:47.148Z,0.80
2023-02-21T23:24:15.937Z,0.90
2023-02-21T23:26:44.538Z,0.90
2023-02-21T23:29:14.733Z,0.90
2023-02-21T23:31:41.995Z,0.90
2023-02-21T23:34:10.324Z,0.80
2023-02-21T23:36:39.825Z,0.80
2023-02-21T23:39:09.289Z,0.60
2023-02-21T23:41:40.872Z,0.60
2023-02-21T23:44:11.129Z,0.70
2023-02-21T23:46:44.243Z,0.00
2023-02-21T23:49:15.693Z,0.60
2023-02-21T23:51:43.998Z,0.60
2023-02-21T23:54:13.771Z,0.70
2023-02-21T23:56:40.809Z,0.60
2023-02-21T23:59:08.143Z,0.70
